Atlanta, Kansas
Current Conditions -  °F | °C
As of 8:55 PM on Monday 22 Dec 2014 (Local Time) from KEQA Reporting Station
Scattered Clouds Scattered Clouds  
Wind Chill: 34°   Ceiling: Unl
Heat Index: 39°   Visibility: 10mi
Dew Point: 36°   Wind: 8mph
Humidity: 87%   Direction: 220°SW
Pressure: 29.61"   Gusts: NA
Location:  37.44°N, 96.76°W
Report Text: KEQA 230255Z AUTO 22007KT 10SM SCT070 SCT100 04/02 A2961 RMK AO2
Loading
Personal Weather Stations






























Interactive Weather Map New forecast layout! Learn more

10-Day Weather Forecast

Advertisements
Track Severe Weather on mobile